sensor_id;sensor_type;location;lat;lon;timestamp;P1;durP1;ratioP1;P2;durP2;ratioP2
21297;SDS011;10808;48.010;11.326;2024-02-04T00:01:54;9.65;;;5.80;;
21297;SDS011;10808;48.010;11.326;2024-02-04T00:04:20;6.93;;;5.68;;
21297;SDS011;10808;48.010;11.326;2024-02-04T00:06:46;7.18;;;5.90;;
21297;SDS011;10808;48.010;11.326;2024-02-04T00:09:12;7.83;;;5.97;;
21297;SDS011;10808;48.010;11.326;2024-02-04T00:11:39;7.50;;;5.97;;
21297;SDS011;10808;48.010;11.326;2024-02-04T00:14:05;7.47;;;5.60;;
21297;SDS011;10808;48.010;11.326;2024-02-04T00:16:31;6.97;;;5.70;;
21297;SDS011;10808;48.010;11.326;2024-02-04T00:18:57;7.70;;;5.95;;
21297;SDS011;10808;48.010;11.326;2024-02-04T00:21:23;7.45;;;6.20;;
21297;SDS011;10808;48.010;11.326;2024-02-04T00:23:49;7.82;;;6.30;;
21297;SDS011;10808;48.010;11.326;2024-02-04T00:26:15;8.02;;;6.57;;
21297;SDS011;10808;48.010;11.326;2024-02-04T00:28:42;8.10;;;6.78;;
21297;SDS011;10808;48.010;11.326;2024-02-04T00:31:08;7.80;;;6.63;;
21297;SDS011;10808;48.010;11.326;2024-02-04T00:33:34;8.32;;;6.78;;
21297;SDS011;10808;48.010;11.326;2024-02-04T00:36:00;8.77;;;6.88;;
21297;SDS011;10808;48.010;11.326;2024-02-04T00:38:27;9.35;;;7.35;;
21297;SDS011;10808;48.010;11.326;2024-02-04T00:40:53;9.30;;;7.28;;
21297;SDS011;10808;48.010;11.326;2024-02-04T00:43:20;8.35;;;7.07;;
21297;SDS011;10808;48.010;11.326;2024-02-04T00:45:46;9.23;;;7.07;;
21297;SDS011;10808;48.010;11.326;2024-02-04T00:48:12;10.35;;;7.47;;
21297;SDS011;10808;48.010;11.326;2024-02-04T00:50:38;9.00;;;7.18;;
21297;SDS011;10808;48.010;11.326;2024-02-04T00:53:04;9.65;;;7.07;;
21297;SDS011;10808;48.010;11.326;2024-02-04T00:55:30;9.52;;;7.25;;
21297;SDS011;10808;48.010;11.326;2024-02-04T00:57:57;8.40;;;7.50;;
21297;SDS011;10808;48.010;11.326;2024-02-04T01:00:25;9.13;;;7.65;;
21297;SDS011;10808;48.010;11.326;2024-02-04T01:02:51;9.20;;;7.53;;
21297;SDS011;10808;48.010;11.326;2024-02-04T01:05:18;8.82;;;7.40;;
21297;SDS011;10808;48.010;11.326;2024-02-04T01:07:45;8.60;;;7.53;;
21297;SDS011;10808;48.010;11.326;2024-02-04T01:10:11;9.27;;;7.20;;
21297;SDS011;10808;48.010;11.326;2024-02-04T01:12:37;8.57;;;7.07;;
21297;SDS011;10808;48.010;11.326;2024-02-04T01:15:04;9.90;;;7.20;;
21297;SDS011;10808;48.010;11.326;2024-02-04T01:17:31;8.65;;;7.28;;
21297;SDS011;10808;48.010;11.326;2024-02-04T01:19:58;10.38;;;7.57;;
21297;SDS011;10808;48.010;11.326;2024-02-04T01:22:24;10.13;;;7.53;;
21297;SDS011;10808;48.010;11.326;2024-02-04T01:24:52;8.70;;;7.40;;
21297;SDS011;10808;48.010;11.326;2024-02-04T01:27:19;10.38;;;7.78;;
21297;SDS011;10808;48.010;11.326;2024-02-04T01:29:45;10.02;;;7.93;;
21297;SDS011;10808;48.010;11.326;2024-02-04T01:32:11;10.15;;;8.18;;
21297;SDS011;10808;48.010;11.326;2024-02-04T01:34:37;10.60;;;8.40;;
21297;SDS011;10808;48.010;11.326;2024-02-04T01:37:03;9.82;;;8.07;;
21297;SDS011;10808;48.010;11.326;2024-02-04T01:39:29;10.40;;;8.23;;
21297;SDS011;10808;48.010;11.326;2024-02-04T01:41:55;11.55;;;8.95;;
21297;SDS011;10808;48.010;11.326;2024-02-04T01:44:21;10.70;;;8.82;;
21297;SDS011;10808;48.010;11.326;2024-02-04T01:46:48;11.38;;;9.05;;
21297;SDS011;10808;48.010;11.326;2024-02-04T01:49:14;10.90;;;8.80;;
21297;SDS011;10808;48.010;11.326;2024-02-04T01:51:40;11.65;;;9.00;;
21297;SDS011;10808;48.010;11.326;2024-02-04T01:54:07;11.48;;;8.73;;
21297;SDS011;10808;48.010;11.326;2024-02-04T01:56:33;13.43;;;9.23;;
21297;SDS011;10808;48.010;11.326;2024-02-04T01:59:00;11.27;;;8.38;;
21297;SDS011;10808;48.010;11.326;2024-02-04T02:01:26;11.48;;;8.50;;
21297;SDS011;10808;48.010;11.326;2024-02-04T02:03:53;12.40;;;9.10;;
21297;SDS011;10808;48.010;11.326;2024-02-04T02:06:19;13.40;;;9.20;;
21297;SDS011;10808;48.010;11.326;2024-02-04T02:08:45;11.60;;;8.60;;
21297;SDS011;10808;48.010;11.326;2024-02-04T02:11:20;10.33;;;8.13;;
21297;SDS011;10808;48.010;11.326;2024-02-04T02:13:50;12.65;;;8.43;;
21297;SDS011;10808;48.010;11.326;2024-02-04T02:16:26;11.18;;;8.38;;
21297;SDS011;10808;48.010;11.326;2024-02-04T02:18:58;10.32;;;7.97;;
21297;SDS011;10808;48.010;11.326;2024-02-04T02:24:10;10.68;;;8.25;;
21297;SDS011;10808;48.010;11.326;2024-02-04T02:26:40;10.23;;;7.82;;
21297;SDS011;10808;48.010;11.326;2024-02-04T02:29:06;10.57;;;8.20;;
21297;SDS011;10808;48.010;11.326;2024-02-04T02:31:36;10.40;;;8.27;;
21297;SDS011;10808;48.010;11.326;2024-02-04T02:34:03;10.27;;;8.05;;
21297;SDS011;10808;48.010;11.326;2024-02-04T02:36:32;9.68;;;7.68;;
21297;SDS011;10808;48.010;11.326;2024-02-04T02:39:08;10.00;;;7.72;;
21297;SDS011;10808;48.010;11.326;2024-02-04T02:41:39;9.95;;;7.53;;
21297;SDS011;10808;48.010;11.326;2024-02-04T02:44:09;10.25;;;7.53;;
21297;SDS011;10808;48.010;11.326;2024-02-04T02:46:36;8.90;;;7.00;;
21297;SDS011;10808;48.010;11.326;2024-02-04T02:49:03;10.30;;;7.10;;
21297;SDS011;10808;48.010;11.326;2024-02-04T02:51:30;8.67;;;6.87;;
21297;SDS011;10808;48.010;11.326;2024-02-04T02:53:56;8.93;;;6.72;;
21297;SDS011;10808;48.010;11.326;2024-02-04T02:56:22;9.18;;;7.28;;
21297;SDS011;10808;48.010;11.326;2024-02-04T02:58:48;8.05;;;6.85;;
21297;SDS011;10808;48.010;11.326;2024-02-04T03:01:14;8.80;;;6.70;;
21297;SDS011;10808;48.010;11.326;2024-02-04T03:03:40;10.90;;;7.50;;
21297;SDS011;10808;48.010;11.326;2024-02-04T03:06:06;10.48;;;7.20;;
21297;SDS011;10808;48.010;11.326;2024-02-04T03:08:33;9.17;;;7.00;;
21297;SDS011;10808;48.010;11.326;2024-02-04T03:10:59;9.35;;;6.53;;
21297;SDS011;10808;48.010;11.326;2024-02-04T03:13:25;9.85;;;6.93;;
21297;SDS011;10808;48.010;11.326;2024-02-04T03:15:51;8.57;;;6.97;;
21297;SDS011;10808;48.010;11.326;2024-02-04T03:18:17;8.37;;;6.90;;
21297;SDS011;10808;48.010;11.326;2024-02-04T03:20:43;9.10;;;6.30;;
21297;SDS011;10808;48.010;11.326;2024-02-04T03:23:09;9.18;;;6.68;;
21297;SDS011;10808;48.010;11.326;2024-02-04T03:25:35;8.63;;;6.07;;
21297;SDS011;10808;48.010;11.326;2024-02-04T03:28:01;10.18;;;6.45;;
21297;SDS011;10808;48.010;11.326;2024-02-04T03:30:28;8.50;;;6.25;;
21297;SDS011;10808;48.010;11.326;2024-02-04T03:32:54;8.18;;;6.30;;
21297;SDS011;10808;48.010;11.326;2024-02-04T03:35:20;7.63;;;6.22;;
21297;SDS011;10808;48.010;11.326;2024-02-04T03:37:47;9.15;;;6.50;;
21297;SDS011;10808;48.010;11.326;2024-02-04T03:40:13;9.80;;;6.03;;
21297;SDS011;10808;48.010;11.326;2024-02-04T03:42:39;8.57;;;6.00;;
21297;SDS011;10808;48.010;11.326;2024-02-04T03:45:06;7.38;;;5.82;;
21297;SDS011;10808;48.010;11.326;2024-02-04T03:47:32;7.77;;;6.10;;
21297;SDS011;10808;48.010;11.326;2024-02-04T03:49:58;7.18;;;5.85;;
21297;SDS011;10808;48.010;11.326;2024-02-04T03:52:24;7.55;;;5.55;;
21297;SDS011;10808;48.010;11.326;2024-02-04T03:54:50;6.57;;;5.30;;
21297;SDS011;10808;48.010;11.326;2024-02-04T03:57:16;7.90;;;4.87;;
21297;SDS011;10808;48.010;11.326;2024-02-04T03:59:44;6.57;;;5.10;;
21297;SDS011;10808;48.010;11.326;2024-02-04T04:02:11;9.35;;;5.22;;
21297;SDS011;10808;48.010;11.326;2024-02-04T04:04:39;6.45;;;5.03;;
21297;SDS011;10808;48.010;11.326;2024-02-04T04:07:07;6.53;;;4.95;;
21297;SDS011;10808;48.010;11.326;2024-02-04T04:09:33;7.63;;;5.20;;
21297;SDS011;10808;48.010;11.326;2024-02-04T04:11:59;7.47;;;5.00;;
21297;SDS011;10808;48.010;11.326;2024-02-04T04:14:25;6.43;;;4.68;;
21297;SDS011;10808;48.010;11.326;2024-02-04T04:16:51;6.65;;;4.70;;
21297;SDS011;10808;48.010;11.326;2024-02-04T04:19:17;8.73;;;4.78;;
21297;SDS011;10808;48.010;11.326;2024-02-04T04:21:43;6.57;;;4.50;;
21297;SDS011;10808;48.010;11.326;2024-02-04T04:24:09;5.60;;;4.45;;
21297;SDS011;10808;48.010;11.326;2024-02-04T04:26:35;5.20;;;4.22;;
21297;SDS011;10808;48.010;11.326;2024-02-04T04:29:02;6.53;;;4.33;;
21297;SDS011;10808;48.010;11.326;2024-02-04T04:31:28;5.93;;;4.30;;
21297;SDS011;10808;48.010;11.326;2024-02-04T04:33:54;6.18;;;4.05;;
21297;SDS011;10808;48.010;11.326;2024-02-04T04:36:20;5.05;;;3.92;;
21297;SDS011;10808;48.010;11.326;2024-02-04T04:38:46;6.57;;;3.50;;
21297;SDS011;10808;48.010;11.326;2024-02-04T04:41:15;6.38;;;4.10;;
21297;SDS011;10808;48.010;11.326;2024-02-04T04:43:41;5.53;;;4.00;;
21297;SDS011;10808;48.010;11.326;2024-02-04T04:46:08;5.95;;;4.38;;
21297;SDS011;10808;48.010;11.326;2024-02-04T04:48:34;10.30;;;4.60;;
21297;SDS011;10808;48.010;11.326;2024-02-04T04:51:00;5.63;;;4.35;;
21297;SDS011;10808;48.010;11.326;2024-02-04T04:53:26;6.05;;;3.97;;
21297;SDS011;10808;48.010;11.326;2024-02-04T04:55:52;7.65;;;4.25;;
21297;SDS011;10808;48.010;11.326;2024-02-04T04:58:18;5.60;;;4.20;;
21297;SDS011;10808;48.010;11.326;2024-02-04T05:00:44;6.57;;;4.15;;
21297;SDS011;10808;48.010;11.326;2024-02-04T05:03:11;6.80;;;4.13;;
21297;SDS011;10808;48.010;11.326;2024-02-04T05:05:37;6.63;;;3.72;;
21297;SDS011;10808;48.010;11.326;2024-02-04T05:08:03;4.80;;;3.90;;
21297;SDS011;10808;48.010;11.326;2024-02-04T05:10:29;5.22;;;4.00;;
21297;SDS011;10808;48.010;11.326;2024-02-04T05:12:55;5.57;;;4.10;;
21297;SDS011;10808;48.010;11.326;2024-02-04T05:15:21;5.43;;;4.03;;
21297;SDS011;10808;48.010;11.326;2024-02-04T05:17:47;8.02;;;4.20;;
21297;SDS011;10808;48.010;11.326;2024-02-04T05:20:13;5.47;;;4.10;;
21297;SDS011;10808;48.010;11.326;2024-02-04T05:22:39;5.97;;;4.50;;
21297;SDS011;10808;48.010;11.326;2024-02-04T05:25:06;6.50;;;4.50;;
21297;SDS011;10808;48.010;11.326;2024-02-04T05:27:35;5.53;;;4.10;;
21297;SDS011;10808;48.010;11.326;2024-02-04T05:30:02;6.22;;;4.35;;
21297;SDS011;10808;48.010;11.326;2024-02-04T05:32:28;6.57;;;4.57;;
21297;SDS011;10808;48.010;11.326;2024-02-04T05:34:54;6.50;;;4.67;;
21297;SDS011;10808;48.010;11.326;2024-02-04T05:37:20;6.63;;;4.60;;
21297;SDS011;10808;48.010;11.326;2024-02-04T05:39:47;8.20;;;4.60;;
21297;SDS011;10808;48.010;11.326;2024-02-04T05:42:13;6.57;;;4.03;;
21297;SDS011;10808;48.010;11.326;2024-02-04T05:44:39;7.13;;;4.47;;
21297;SDS011;10808;48.010;11.326;2024-02-04T05:47:05;6.20;;;4.20;;
21297;SDS011;10808;48.010;11.326;2024-02-04T05:49:31;7.18;;;4.55;;
21297;SDS011;10808;48.010;11.326;2024-02-04T05:51:57;7.03;;;4.30;;
21297;SDS011;10808;48.010;11.326;2024-02-04T05:54:23;8.57;;;4.73;;
21297;SDS011;10808;48.010;11.326;2024-02-04T05:56:49;6.15;;;4.70;;
21297;SDS011;10808;48.010;11.326;2024-02-04T05:59:15;9.60;;;5.38;;
21297;SDS011;10808;48.010;11.326;2024-02-04T06:01:42;8.32;;;4.70;;
21297;SDS011;10808;48.010;11.326;2024-02-04T06:04:08;7.82;;;5.10;;
21297;SDS011;10808;48.010;11.326;2024-02-04T06:06:34;8.02;;;4.53;;
21297;SDS011;10808;48.010;11.326;2024-02-04T06:09:00;8.10;;;5.03;;
21297;SDS011;10808;48.010;11.326;2024-02-04T06:11:26;12.10;;;5.50;;
21297;SDS011;10808;48.010;11.326;2024-02-04T06:13:52;11.67;;;5.23;;
21297;SDS011;10808;48.010;11.326;2024-02-04T06:16:19;11.85;;;5.38;;
21297;SDS011;10808;48.010;11.326;2024-02-04T06:18:45;11.40;;;5.15;;
21297;SDS011;10808;48.010;11.326;2024-02-04T06:21:11;11.57;;;5.00;;
21297;SDS011;10808;48.010;11.326;2024-02-04T06:23:38;10.68;;;5.20;;
21297;SDS011;10808;48.010;11.326;2024-02-04T06:26:05;8.55;;;5.20;;
21297;SDS011;10808;48.010;11.326;2024-02-04T06:28:31;11.30;;;5.10;;
21297;SDS011;10808;48.010;11.326;2024-02-04T06:30:57;9.18;;;5.00;;
21297;SDS011;10808;48.010;11.326;2024-02-04T06:33:27;12.73;;;4.85;;
21297;SDS011;10808;48.010;11.326;2024-02-04T06:35:53;9.37;;;4.60;;
21297;SDS011;10808;48.010;11.326;2024-02-04T06:38:19;11.20;;;4.65;;
21297;SDS011;10808;48.010;11.326;2024-02-04T06:40:45;13.18;;;5.00;;
21297;SDS011;10808;48.010;11.326;2024-02-04T06:43:11;11.77;;;5.20;;
21297;SDS011;10808;48.010;11.326;2024-02-04T06:45:37;14.88;;;4.88;;
21297;SDS011;10808;48.010;11.326;2024-02-04T06:48:03;9.73;;;5.00;;
21297;SDS011;10808;48.010;11.326;2024-02-04T06:50:30;12.88;;;5.40;;
21297;SDS011;10808;48.010;11.326;2024-02-04T06:52:56;17.10;;;5.38;;
21297;SDS011;10808;48.010;11.326;2024-02-04T06:55:22;12.32;;;5.15;;
21297;SDS011;10808;48.010;11.326;2024-02-04T06:57:48;12.77;;;5.55;;
21297;SDS011;10808;48.010;11.326;2024-02-04T07:00:14;12.15;;;5.32;;
21297;SDS011;10808;48.010;11.326;2024-02-04T07:02:41;15.68;;;6.07;;
21297;SDS011;10808;48.010;11.326;2024-02-04T07:05:07;15.05;;;6.10;;
21297;SDS011;10808;48.010;11.326;2024-02-04T07:07:33;15.35;;;5.65;;
21297;SDS011;10808;48.010;11.326;2024-02-04T07:09:59;12.57;;;5.55;;
21297;SDS011;10808;48.010;11.326;2024-02-04T07:12:25;13.88;;;5.75;;
21297;SDS011;10808;48.010;11.326;2024-02-04T07:14:51;15.30;;;5.70;;
21297;SDS011;10808;48.010;11.326;2024-02-04T07:17:19;15.63;;;6.28;;
21297;SDS011;10808;48.010;11.326;2024-02-04T07:19:45;13.20;;;5.63;;
21297;SDS011;10808;48.010;11.326;2024-02-04T07:22:12;17.63;;;6.63;;
21297;SDS011;10808;48.010;11.326;2024-02-04T07:24:38;14.10;;;6.65;;
21297;SDS011;10808;48.010;11.326;2024-02-04T07:27:04;14.60;;;6.32;;
21297;SDS011;10808;48.010;11.326;2024-02-04T07:29:30;11.82;;;6.15;;
21297;SDS011;10808;48.010;11.326;2024-02-04T07:31:56;18.63;;;6.78;;
21297;SDS011;10808;48.010;11.326;2024-02-04T07:34:25;13.38;;;6.40;;
21297;SDS011;10808;48.010;11.326;2024-02-04T07:36:51;15.65;;;7.20;;
21297;SDS011;10808;48.010;11.326;2024-02-04T07:39:18;13.20;;;6.50;;
21297;SDS011;10808;48.010;11.326;2024-02-04T07:41:44;14.80;;;6.32;;
21297;SDS011;10808;48.010;11.326;2024-02-04T07:44:10;14.85;;;6.78;;
21297;SDS011;10808;48.010;11.326;2024-02-04T07:46:36;19.20;;;7.13;;
21297;SDS011;10808;48.010;11.326;2024-02-04T07:49:03;16.80;;;7.05;;
21297;SDS011;10808;48.010;11.326;2024-02-04T07:51:30;13.55;;;6.80;;
21297;SDS011;10808;48.010;11.326;2024-02-04T07:53:57;15.25;;;6.70;;
21297;SDS011;10808;48.010;11.326;2024-02-04T07:56:26;13.73;;;6.28;;
21297;SDS011;10808;48.010;11.326;2024-02-04T07:58:52;18.10;;;7.88;;
21297;SDS011;10808;48.010;11.326;2024-02-04T08:01:18;12.98;;;7.00;;
21297;SDS011;10808;48.010;11.326;2024-02-04T08:03:44;13.95;;;6.40;;
21297;SDS011;10808;48.010;11.326;2024-02-04T08:06:12;14.75;;;6.53;;
21297;SDS011;10808;48.010;11.326;2024-02-04T08:08:38;12.05;;;6.30;;
21297;SDS011;10808;48.010;11.326;2024-02-04T08:11:04;17.55;;;6.82;;
21297;SDS011;10808;48.010;11.326;2024-02-04T08:13:30;14.57;;;6.63;;
21297;SDS011;10808;48.010;11.326;2024-02-04T08:15:56;12.55;;;5.55;;
21297;SDS011;10808;48.010;11.326;2024-02-04T08:18:22;13.93;;;6.00;;
21297;SDS011;10808;48.010;11.326;2024-02-04T08:20:48;14.50;;;6.15;;
21297;SDS011;10808;48.010;11.326;2024-02-04T08:23:14;12.65;;;6.22;;
21297;SDS011;10808;48.010;11.326;2024-02-04T08:25:40;14.50;;;6.50;;
21297;SDS011;10808;48.010;11.326;2024-02-04T08:28:07;14.07;;;5.95;;
21297;SDS011;10808;48.010;11.326;2024-02-04T08:30:33;12.98;;;5.30;;
21297;SDS011;10808;48.010;11.326;2024-02-04T08:32:59;14.43;;;6.10;;
21297;SDS011;10808;48.010;11.326;2024-02-04T08:35:25;14.13;;;5.73;;
21297;SDS011;10808;48.010;11.326;2024-02-04T08:37:51;14.02;;;5.90;;
21297;SDS011;10808;48.010;11.326;2024-02-04T08:40:17;13.20;;;6.10;;
21297;SDS011;10808;48.010;11.326;2024-02-04T08:42:43;14.38;;;5.82;;
21297;SDS011;10808;48.010;11.326;2024-02-04T08:45:09;13.52;;;6.00;;
21297;SDS011;10808;48.010;11.326;2024-02-04T08:47:35;12.95;;;6.30;;
21297;SDS011;10808;48.010;11.326;2024-02-04T08:50:01;15.38;;;6.15;;
21297;SDS011;10808;48.010;11.326;2024-02-04T08:52:27;14.60;;;6.40;;
21297;SDS011;10808;48.010;11.326;2024-02-04T08:54:53;12.77;;;6.45;;
21297;SDS011;10808;48.010;11.326;2024-02-04T08:57:19;15.07;;;6.90;;
21297;SDS011;10808;48.010;11.326;2024-02-04T08:59:47;16.55;;;8.02;;
21297;SDS011;10808;48.010;11.326;2024-02-04T09:02:13;11.70;;;6.35;;
21297;SDS011;10808;48.010;11.326;2024-02-04T09:04:39;16.15;;;6.47;;
21297;SDS011;10808;48.010;11.326;2024-02-04T09:07:07;12.73;;;5.80;;
21297;SDS011;10808;48.010;11.326;2024-02-04T09:09:33;10.80;;;5.90;;
21297;SDS011;10808;48.010;11.326;2024-02-04T09:11:59;17.83;;;6.72;;
21297;SDS011;10808;48.010;11.326;2024-02-04T09:14:25;10.38;;;5.80;;
21297;SDS011;10808;48.010;11.326;2024-02-04T09:16:51;11.75;;;5.95;;
21297;SDS011;10808;48.010;11.326;2024-02-04T09:19:20;9.57;;;5.65;;
21297;SDS011;10808;48.010;11.326;2024-02-04T09:21:47;9.90;;;5.60;;
21297;SDS011;10808;48.010;11.326;2024-02-04T09:24:13;14.65;;;5.70;;
21297;SDS011;10808;48.010;11.326;2024-02-04T09:26:39;11.15;;;5.95;;
21297;SDS011;10808;48.010;11.326;2024-02-04T09:29:05;12.13;;;6.17;;
21297;SDS011;10808;48.010;11.326;2024-02-04T09:31:31;13.27;;;5.90;;
21297;SDS011;10808;48.010;11.326;2024-02-04T09:33:57;13.18;;;6.38;;
21297;SDS011;10808;48.010;11.326;2024-02-04T09:36:23;13.13;;;6.03;;
21297;SDS011;10808;48.010;11.326;2024-02-04T09:38:49;10.48;;;6.00;;
21297;SDS011;10808;48.010;11.326;2024-02-04T09:41:15;12.38;;;6.10;;
21297;SDS011;10808;48.010;11.326;2024-02-04T09:43:41;9.77;;;5.90;;
21297;SDS011;10808;48.010;11.326;2024-02-04T09:46:08;14.63;;;6.30;;
21297;SDS011;10808;48.010;11.326;2024-02-04T09:48:34;11.00;;;5.95;;
21297;SDS011;10808;48.010;11.326;2024-02-04T09:51:02;10.35;;;6.18;;
21297;SDS011;10808;48.010;11.326;2024-02-04T09:53:31;10.73;;;6.38;;
21297;SDS011;10808;48.010;11.326;2024-02-04T09:56:04;13.20;;;5.97;;
21297;SDS011;10808;48.010;11.326;2024-02-04T09:58:32;10.00;;;6.13;;
21297;SDS011;10808;48.010;11.326;2024-02-04T10:00:59;12.57;;;6.18;;
21297;SDS011;10808;48.010;11.326;2024-02-04T10:03:26;10.52;;;6.03;;
21297;SDS011;10808;48.010;11.326;2024-02-04T10:05:52;12.95;;;6.30;;
21297;SDS011;10808;48.010;11.326;2024-02-04T10:08:18;12.10;;;5.95;;
21297;SDS011;10808;48.010;11.326;2024-02-04T10:10:48;14.15;;;6.15;;
21297;SDS011;10808;48.010;11.326;2024-02-04T10:13:15;9.85;;;5.55;;
21297;SDS011;10808;48.010;11.326;2024-02-04T10:15:41;9.33;;;5.70;;
21297;SDS011;10808;48.010;11.326;2024-02-04T10:18:08;12.80;;;5.90;;
21297;SDS011;10808;48.010;11.326;2024-02-04T10:20:34;13.18;;;6.15;;
21297;SDS011;10808;48.010;11.326;2024-02-04T10:23:00;13.65;;;5.65;;
21297;SDS011;10808;48.010;11.326;2024-02-04T10:25:26;10.20;;;5.63;;
21297;SDS011;10808;48.010;11.326;2024-02-04T10:27:53;10.82;;;5.95;;
21297;SDS011;10808;48.010;11.326;2024-02-04T10:30:25;11.90;;;5.82;;
21297;SDS011;10808;48.010;11.326;2024-02-04T10:32:53;9.65;;;5.97;;
21297;SDS011;10808;48.010;11.326;2024-02-04T10:35:22;13.98;;;5.70;;
21297;SDS011;10808;48.010;11.326;2024-02-04T10:38:22;11.38;;;5.30;;
21297;SDS011;10808;48.010;11.326;2024-02-04T10:40:50;12.63;;;5.60;;
21297;SDS011;10808;48.010;11.326;2024-02-04T10:43:33;8.63;;;5.32;;
21297;SDS011;10808;48.010;11.326;2024-02-04T10:46:09;7.40;;;4.80;;
21297;SDS011;10808;48.010;11.326;2024-02-04T10:48:41;11.68;;;4.97;;
21297;SDS011;10808;48.010;11.326;2024-02-04T10:51:15;12.18;;;5.20;;
21297;SDS011;10808;48.010;11.326;2024-02-04T10:53:42;9.10;;;4.37;;
21297;SDS011;10808;48.010;11.326;2024-02-04T10:56:13;12.10;;;4.32;;
21297;SDS011;10808;48.010;11.326;2024-02-04T10:59:00;10.75;;;4.03;;
21297;SDS011;10808;48.010;11.326;2024-02-04T11:01:28;10.03;;;3.83;;
21297;SDS011;10808;48.010;11.326;2024-02-04T11:03:54;8.50;;;3.75;;
21297;SDS011;10808;48.010;11.326;2024-02-04T11:06:23;7.82;;;3.50;;
21297;SDS011;10808;48.010;11.326;2024-02-04T11:08:52;10.40;;;3.53;;
21297;SDS011;10808;48.010;11.326;2024-02-04T11:11:20;6.03;;;3.15;;
21297;SDS011;10808;48.010;11.326;2024-02-04T11:13:49;8.23;;;3.60;;
21297;SDS011;10808;48.010;11.326;2024-02-04T11:25:15;9.00;;;3.53;;
21297;SDS011;10808;48.010;11.326;2024-02-04T11:27:55;7.68;;;3.13;;
21297;SDS011;10808;48.010;11.326;2024-02-04T11:32:52;7.75;;;3.25;;
21297;SDS011;10808;48.010;11.326;2024-02-04T11:35:19;9.32;;;3.20;;
21297;SDS011;10808;48.010;11.326;2024-02-04T11:37:46;5.80;;;2.90;;
21297;SDS011;10808;48.010;11.326;2024-02-04T11:40:15;6.55;;;3.17;;
21297;SDS011;10808;48.010;11.326;2024-02-04T11:42:42;8.50;;;2.80;;
21297;SDS011;10808;48.010;11.326;2024-02-04T11:45:09;8.03;;;3.00;;
21297;SDS011;10808;48.010;11.326;2024-02-04T11:47:38;9.23;;;3.20;;
21297;SDS011;10808;48.010;11.326;2024-02-04T11:50:06;8.68;;;2.70;;
21297;SDS011;10808;48.010;11.326;2024-02-04T11:52:33;8.90;;;3.00;;
21297;SDS011;10808;48.010;11.326;2024-02-04T11:54:59;7.07;;;2.72;;
21297;SDS011;10808;48.010;11.326;2024-02-04T11:57:25;8.52;;;2.97;;
21297;SDS011;10808;48.010;11.326;2024-02-04T11:59:52;7.32;;;3.20;;
21297;SDS011;10808;48.010;11.326;2024-02-04T12:02:20;10.10;;;2.65;;
21297;SDS011;10808;48.010;11.326;2024-02-04T12:04:46;9.63;;;2.85;;
21297;SDS011;10808;48.010;11.326;2024-02-04T12:07:13;7.78;;;2.60;;
21297;SDS011;10808;48.010;11.326;2024-02-04T12:09:40;6.20;;;2.60;;
21297;SDS011;10808;48.010;11.326;2024-02-04T12:12:06;6.20;;;2.63;;
21297;SDS011;10808;48.010;11.326;2024-02-04T12:14:37;8.73;;;2.80;;
21297;SDS011;10808;48.010;11.326;2024-02-04T12:17:08;6.30;;;2.17;;
21297;SDS011;10808;48.010;11.326;2024-02-04T12:19:36;6.38;;;2.75;;
21297;SDS011;10808;48.010;11.326;2024-02-04T12:22:06;7.32;;;2.60;;
21297;SDS011;10808;48.010;11.326;2024-02-04T12:24:38;9.45;;;2.70;;
21297;SDS011;10808;48.010;11.326;2024-02-04T12:27:08;10.38;;;2.80;;
21297;SDS011;10808;48.010;11.326;2024-02-04T12:29:34;11.50;;;3.10;;
21297;SDS011;10808;48.010;11.326;2024-02-04T12:32:02;7.45;;;2.60;;
21297;SDS011;10808;48.010;11.326;2024-02-04T12:34:29;6.80;;;2.50;;
21297;SDS011;10808;48.010;11.326;2024-02-04T12:37:01;6.93;;;2.47;;
21297;SDS011;10808;48.010;11.326;2024-02-04T12:39:28;8.43;;;2.42;;
21297;SDS011;10808;48.010;11.326;2024-02-04T12:41:54;6.78;;;2.40;;
21297;SDS011;10808;48.010;11.326;2024-02-04T12:44:20;5.43;;;2.40;;
21297;SDS011;10808;48.010;11.326;2024-02-04T12:46:54;8.37;;;2.83;;
21297;SDS011;10808;48.010;11.326;2024-02-04T12:49:20;7.00;;;2.38;;
21297;SDS011;10808;48.010;11.326;2024-02-04T12:51:51;7.70;;;2.30;;
21297;SDS011;10808;48.010;11.326;2024-02-04T12:54:21;7.55;;;2.38;;
21297;SDS011;10808;48.010;11.326;2024-02-04T12:56:52;8.25;;;2.67;;
21297;SDS011;10808;48.010;11.326;2024-02-04T13:02:03;8.68;;;2.17;;
21297;SDS011;10808;48.010;11.326;2024-02-04T13:04:37;4.63;;;1.83;;
21297;SDS011;10808;48.010;11.326;2024-02-04T13:07:09;8.30;;;2.15;;
21297;SDS011;10808;48.010;11.326;2024-02-04T13:09:38;5.55;;;1.70;;
21297;SDS011;10808;48.010;11.326;2024-02-04T13:12:08;9.32;;;2.10;;
21297;SDS011;10808;48.010;11.326;2024-02-04T13:14:36;6.82;;;1.73;;
21297;SDS011;10808;48.010;11.326;2024-02-04T13:17:19;10.13;;;1.88;;
21297;SDS011;10808;48.010;11.326;2024-02-04T13:19:46;6.07;;;1.85;;
21297;SDS011;10808;48.010;11.326;2024-02-04T13:22:12;6.20;;;1.70;;
21297;SDS011;10808;48.010;11.326;2024-02-04T13:24:41;6.67;;;1.80;;
21297;SDS011;10808;48.010;11.326;2024-02-04T13:27:08;6.28;;;1.88;;
21297;SDS011;10808;48.010;11.326;2024-02-04T13:29:34;5.10;;;1.92;;
21297;SDS011;10808;48.010;11.326;2024-02-04T13:32:01;7.88;;;1.70;;
21297;SDS011;10808;48.010;11.326;2024-02-04T13:34:27;5.20;;;1.60;;
21297;SDS011;10808;48.010;11.326;2024-02-04T13:36:55;4.78;;;1.60;;
21297;SDS011;10808;48.010;11.326;2024-02-04T13:39:25;5.43;;;1.50;;
21297;SDS011;10808;48.010;11.326;2024-02-04T13:41:51;5.72;;;1.40;;
21297;SDS011;10808;48.010;11.326;2024-02-04T13:44:17;6.82;;;1.55;;
21297;SDS011;10808;48.010;11.326;2024-02-04T13:46:51;7.80;;;2.00;;
21297;SDS011;10808;48.010;11.326;2024-02-04T13:49:22;5.60;;;1.70;;
21297;SDS011;10808;48.010;11.326;2024-02-04T13:51:48;5.32;;;1.80;;
21297;SDS011;10808;48.010;11.326;2024-02-04T13:54:15;6.95;;;1.92;;
21297;SDS011;10808;48.010;11.326;2024-02-04T13:59:31;6.97;;;1.60;;
21297;SDS011;10808;48.010;11.326;2024-02-04T14:01:57;6.53;;;1.60;;
21297;SDS011;10808;48.010;11.326;2024-02-04T14:04:23;7.68;;;1.80;;
21297;SDS011;10808;48.010;11.326;2024-02-04T14:06:49;6.97;;;1.60;;
21297;SDS011;10808;48.010;11.326;2024-02-04T14:09:15;5.47;;;1.70;;
21297;SDS011;10808;48.010;11.326;2024-02-04T14:11:41;6.90;;;2.00;;
21297;SDS011;10808;48.010;11.326;2024-02-04T14:14:23;4.63;;;1.50;;
21297;SDS011;10808;48.010;11.326;2024-02-04T14:16:50;4.63;;;1.50;;
21297;SDS011;10808;48.010;11.326;2024-02-04T14:19:17;5.15;;;1.70;;
21297;SDS011;10808;48.010;11.326;2024-02-04T14:21:43;5.13;;;1.40;;
21297;SDS011;10808;48.010;11.326;2024-02-04T14:24:09;9.57;;;1.48;;
21297;SDS011;10808;48.010;11.326;2024-02-04T14:26:36;4.53;;;1.40;;
21297;SDS011;10808;48.010;11.326;2024-02-04T14:29:02;5.88;;;1.70;;
21297;SDS011;10808;48.010;11.326;2024-02-04T14:31:28;6.07;;;1.80;;
21297;SDS011;10808;48.010;11.326;2024-02-04T14:33:56;9.90;;;1.88;;
21297;SDS011;10808;48.010;11.326;2024-02-04T14:36:22;5.72;;;1.73;;
21297;SDS011;10808;48.010;11.326;2024-02-04T14:38:48;5.30;;;1.77;;
21297;SDS011;10808;48.010;11.326;2024-02-04T14:41:26;5.25;;;1.50;;
21297;SDS011;10808;48.010;11.326;2024-02-04T14:43:52;5.15;;;1.65;;
21297;SDS011;10808;48.010;11.326;2024-02-04T14:46:18;4.70;;;1.60;;
21297;SDS011;10808;48.010;11.326;2024-02-04T14:48:47;6.15;;;1.67;;